Aktualne dane pomiarowe

Uwaga, wersja testowa! Automatyczne pobieranie danych za pomocą narzędzi lub skryptów to umożliwiających jest zabronione.

Dane meteo z obszaru Polski uzyskane na podstawie depesz SYNOP pobieranych co godzinę z NWS. Najedź myszką na symbol przedstawiony w tabeli, aby uzyskać informacje co do jego znaczenia. Prosimy pamiętać, że to testowa wersja strony, która jeszcze nie jest ukończona. Stworzono również jest krótki FAQ dotyczący korzystania z tej podstrony Anomalie temperatury w chwili obecnej odniesione są do okresu referencyjnego 1951-2016. Okres ten będzie później zmieniony na 1981-2010. Kliknij ikonę aby pobrać plik CSV. Kliknij ikonę aby wygenerować mapę synoptyczną dla danego terminu.

Wybierz Datę:    

        

Lublin-Radawiec (12495)

Dane terminowe dla wybranej stacji. Kliknij datę, aby otrzymać dane z tego terminu dla wszystkich stacji.

TemperaturaZachmurzenieWiatrCiśnienieOpadyPogoda
 Data t td wb tx tn tg rh  Nt Nl Cl Cm Ch ws wd g1 g2 wx mslp ppp ch 24h 12h t ww ww w1 w2  
2019-07-20 23:00:00 15.7 14.7 15.0--- 9416.0wx-wx1wx--11017.8 989.3 0.3---------
2019-07-20 22:00:00 16.0 14.6 15.0--- 9110.0wx-wx1wx--11017.8 989.4 0.6---------
2019-07-20 21:00:00 17.2 15.8 16.2--- 9116.0wx-wx1wx---1017.7 989.4 0.6---------
2019-07-20 20:00:00 17.6 16.2 16.6--- 9210.0wx-wx0---01017.3 989.0 0.4---------
2019-07-20 19:00:00 19.3 17.0 17.7--- 8717.0wx-wx1wx--11016.9 988.8 -0.3---------
2019-07-20 18:00:00 21.2 17.3 18.5 27.0 18.5- 7826.0wx-wx1wx-1011016.7 988.8 0.4- 0.912wx-w1--
2019-07-20 17:00:00 22.3 16.9 18.6--- 7235.0wxwxwxwx1wx--11016.4 988.6 0.2---wx-w1--
2019-07-20 16:00:00 19.6 16.0 17.1--- 8012.0wxwxwx4wx-1041017.2 989.1 0.3---wx---
2019-07-20 15:00:00 25.5 12.1 17.4--- 4335.0wxwxwx2wx---1015.9 988.4 -0.6---------
2019-07-20 14:00:00 26.2 13.1 18.1--- 4435.0wxwxwxwx1wx--11015.8 988.4 -0.8---------
2019-07-20 13:00:00 25.4 12.0 17.3--- 4335.0wxwxwxwx2wx--21016.3 988.8 -0.7---------
2019-07-20 12:00:00 25.7 13.0 17.9--- 4535.0wxwxwxwx2wx--21016.5 989.0 -0.6--6wx-w1--
2019-07-20 11:00:00 25.3 12.6 17.5--- 4535.0wxwxwxwx3wx--31016.7 989.2 -0.2---------
2019-07-20 10:00:00 23.3 13.3 17.0--- 5326.0wxwxwxwx2wx--21017.2 989.5 0.2---------
2019-07-20 09:00:00 22.2 14.2 17.1--- 6130.0wxwxwxwx2wx--21017.4 989.6 0.4---wx-w1--
2019-07-20 08:00:00 20.6 15.5 17.2--- 7320.0wxwxwxwx1wx--11017.4 989.4 0.8---wx---
2019-07-20 07:00:00 20.6 13.9 16.3--- 6515.0wxwxwxwx2wx--21017.3 989.3 1.0---wx-w1--
2019-07-20 06:00:00 18.5 14.1 15.6 22.2 16.3 16 7618.0wx-wx1wx--11017.4 989.2 1.0- 0.012----- 10.3
2019-07-20 05:00:00 17.6 13.2 14.7--- 7525.0wx-wx1wx---1016.9 988.6 0.6---------
2019-07-20 04:00:00 17.1 12.9 14.3--- 7625.0wx-wx1wx--11016.6 988.3 0.5---------
2019-07-20 03:00:00 16.7 12.3 13.8--- 7527.0wx-wx1wx--11016.5 988.2 0.4---------
2019-07-20 02:00:00 16.5 11.9 13.5--- 7430.0wx-wx1wx--11016.4 988.0 0.2---------
2019-07-20 01:00:00 17.5 12.1 14.0--- 7135.0wx-wx2wx--21016.1 987.8 0.4---------
2019-07-20 00:00:00 17.4 11.7 13.8--- 6940.0wx-wxwx2wx--21016.1 987.8 0.9- 0.06------
2019-07-19 23:00:00 18.6 12.0 14.4--- 6540.0wx-wx3wx---1015.9 987.8 0.9---------
2019-07-19 22:00:00 18.9 11.3 14.2--- 6140.0wx-wx3wx--31015.5 987.4 0.9---------
2019-07-19 21:00:00 19.6 10.9 14.3--- 5740.0wx-wx2wx--21014.9 986.9 0.9---------
2019-07-19 20:00:00 20.8 10.1 14.4--- 5045.0wx-wx4wx--41014.8 986.9 1.0---------
2019-07-19 19:00:00 22.0 9.3 14.6--- 4445.0wx-wxwx2wx--21014.3 986.5 0.7---------
2019-07-19 18:00:00 22.2 10.1 15.0 27.5 18.3- 4635.0wxwxwxwxwx0---01013.7 986.0 0.3- 0.012------
2019-07-19 17:00:00 25.1 8.2 15.4--- 3440.0wxwxwxwxwx1wx--11013.4 985.9 0.0---------
2019-07-19 16:00:00 26.7 6.8 15.5--- 2835.0wxwxwxwx2wx--21013.1 985.8 -0.3---------
2019-07-19 15:00:00 26.9 5.9 15.2--- 2630.0wxwxwxwx3wx--31013.0 985.7 -0.7---------
2019-07-19 14:00:00 26.6 6.1 15.2--- 2722.0wxwxwxwx2wx--21013.2 985.9 -0.6---------
2019-07-19 13:00:00 25.7 6.9 15.2--- 3040.0wxwxwx1wx--11013.5 986.1 -0.6---------
2019-07-19 12:00:00 25.7 6.9 15.2--- 3035.0wxwxwx2wx-921013.8 986.4 -0.4- 0.06------
2019-07-19 11:00:00 25.7 6.9 15.2--- 3028.0wxwxwx3wx8831013.9 986.5 -0.6---------
2019-07-19 10:00:00 24.9 7.6 15.1--- 3329.0wxwxwx3wx--31014.2 986.7 -0.4---------
2019-07-19 09:00:00 24.1 8.2 15.0--- 3624.0wxwxwxwx3wx--31014.4 986.8 -0.3----22----
2019-07-19 08:00:00 23.4 9.5 15.3--- 4130.0wx-wx2wx--21014.8 987.1 0.0----22----
2019-07-19 07:00:00 21.6 11.4 15.4--- 5230.0wx-wx1wx--11014.9 987.1 0.2----22----
2019-07-19 06:00:00 18.3 11.0 13.8 19.3 9.3 7 6230.0wx-1wx--11015.3 987.1 0.1- 0.012-22--- 10.6
2019-07-19 05:00:00 15.3 11.6 12.9--- 7940.0wxwxwxwx1wx--11015.5 987.1 0.4----22----
2019-07-19 04:00:00 12.1 9.6 10.4--- 8530.0wx-wx1wx--11015.7 986.9 0.1----22----
2019-07-19 03:00:00 10.1 8.5 9.0--- 9050.0wx-wx1wx--11016.0 987.0 0.3----22----
2019-07-19 02:00:00 9.9 8.3 8.8--- 9050.0wx-0---01015.7 986.7 0.2----22----
2019-07-19 01:00:00 9.9 8.1 8.7--- 8940.0wx-1wx--11015.8 986.8 0.3----22----
2019-07-19 00:00:00 11.2 9.0 9.7--- 8640.0wx-0---01015.6 986.7 0.5- 0.06-22----
1.9 ms

 

Print Friendly, PDF & Email